Ce_breeze — ELSQ7 — position and weather

sailwx.info

Track history (hours):
 
Tides and Currents Weather Stations Pressure Air Temp Water Temp Dewpoint Dewpoint Depression Visibility Wind Speed Wind Dir Waves Ship Positions

Ce_breeze

Last reported at 2017-Jan-12 04:08 UTC. Time now 2017-Jan-24 15:11 UTC.
Position N 44°24' E 037°20'.
Warning: this ship's position is 12 days out of date.

Length 240 m; draft 12.6 m.

Type: Tanker. MMSI: 636010400.

Date/timePositionNaut miles runAvg speedWind from/ knotsBaromVisibWave heightAir tempDewpointWater temp
2017-Jan-12 04:08N 44°24' E 037°20'813.5
2017-Jan-12 03:33N 44°26' E 037°30'1212.3
2017-Jan-12 02:33N 44°34' E 037°44'8 8.3
2017-Jan-12 01:33N 44°41' E 037°50'1 1.4
2017-Jan-12 00:31N 44°42' E 037°50'0 0.0
2017-Jan-11 23:31N 44°42' E 037°50'0 0.0
2017-Jan-11 22:31N 44°42' E 037°50'0 0.0
2017-Jan-11 21:31N 44°42' E 037°50'0 0.0
2017-Jan-11 20:31N 44°42' E 037°50'0 0.0
2017-Jan-11 19:31N 44°42' E 037°50'0 0.0
2017-Jan-11 18:31N 44°42' E 037°50'0 0.0
2017-Jan-11 17:31N 44°42' E 037°50'0 0.0
2017-Jan-11 16:31N 44°42' E 037°50'0 0.0
2017-Jan-11 15:31N 44°42' E 037°50'0 0.0
2017-Jan-11 14:31N 44°42' E 037°50'0 0.0
2017-Jan-11 13:31N 44°42' E 037°50'0 0.0
2017-Jan-11 12:31N 44°42' E 037°50'0 0.0
2017-Jan-11 11:31N 44°42' E 037°50'0 0.0
2017-Jan-11 10:31N 44°42' E 037°50'0 0.0
2017-Jan-11 09:31N 44°42' E 037°50'0 0.0
2017-Jan-11 08:31N 44°42' E 037°50'0 0.0
2017-Jan-11 07:31N 44°42' E 037°50'0 0.0
2017-Jan-11 06:31N 44°42' E 037°50'0 0.0
2017-Jan-11 05:31N 44°42' E 037°50'0 0.0
2017-Jan-11 04:34N 44°42' E 037°50'2 1.9
2017-Jan-11 03:34N 44°40' E 037°50'3 3.3
2017-Jan-11 02:34N 44°37' E 037°51'0 0.4
2017-Jan-11 01:34N 44°37' E 037°51'1010.0
2017-Jan-11 00:34N 44°27' E 037°49'5 5.1
2017-Jan-10 23:33N 44°24' E 037°44'1010.2
2017-Jan-10 22:33N 44°27' E 037°30'10 8.2
2017-Jan-10 21:21N 44°32' E 037°18'2 2.1
2017-Jan-10 20:30N 44°31' E 037°20'2 2.4
2017-Jan-10 19:33N 44°30' E 037°23'3 2.5
2017-Jan-10 18:33N 44°29' E 037°26'2 2.5
2017-Jan-10 17:33N 44°28' E 037°29'2 2.4
2017-Jan-10 16:33N 44°27' E 037°33'2 2.2
2017-Jan-10 15:34N 44°27' E 037°35'2 1.8
2017-Jan-10 14:34N 44°26' E 037°38'1 1.3
2017-Jan-10 13:34N 44°26' E 037°40'1 1.2
2017-Jan-10 12:33N 44°26' E 037°41'1 1.1
2017-Jan-10 11:34N 44°25' E 037°43'1 1.0
2017-Jan-10 10:34N 44°25' E 037°44'1 1.0
2017-Jan-10 09:34N 44°24' E 037°45'1 1.0
2017-Jan-10 08:34N 44°23' E 037°46'1 0.9
2017-Jan-10 07:34N 44°23' E 037°47'1 0.8
2017-Jan-10 06:33N 44°22' E 037°48'1 0.8
2017-Jan-10 05:33N 44°22' E 037°49'1 0.6
2017-Jan-10 04:34N 44°22' E 037°50'0 0.4
2017-Jan-10 03:34N 44°22' E 037°51'0 0.3
2017-Jan-10 02:33N 44°22' E 037°51'0 0.2
2017-Jan-10 01:29N 44°22' E 037°51'0 0.4
2017-Jan-10 00:33N 44°21' E 037°51'1 0.6
2017-Jan-09 23:34N 44°21' E 037°50'1 0.8
2017-Jan-09 22:34N 44°20' E 037°50'1 0.9
2017-Jan-09 21:34N 44°19' E 037°50'1 1.0
2017-Jan-09 20:33N 44°18' E 037°49'1 1.0
2017-Jan-09 19:34N 44°17' E 037°49'1 0.9
2017-Jan-09 18:33N 44°16' E 037°49'1 1.0
2017-Jan-09 17:26N 44°15' E 037°49'1 0.7
2017-Jan-09 16:26N 44°15' E 037°48'6 7.1
2017-Jan-09 15:34N 44°20' E 037°44'10 9.6
2017-Jan-09 14:34N 44°28' E 037°36'1 0.8
2017-Jan-09 13:34N 44°27' E 037°35'1 0.7
2017-Jan-09 12:34N 44°27' E 037°34'1 0.6
2017-Jan-09 11:34N 44°26' E 037°33'1 0.6
2017-Jan-09 10:33N 44°26' E 037°33'5 1.7
2017-Jan-09 07:33N 44°21' E 037°32'8 8.1
2017-Jan-09 06:34N 44°13' E 037°36'5 0.3
2017-Jan-08 10:21N 44°10' E 037°30'1 1.1
2017-Jan-08 09:23N 44°11' E 037°29'5 5.9
2017-Jan-08 08:31N 44°08' E 037°35'24 1.4
2017-Jan-07 15:23N 43°49' E 037°16'1 1.4
2017-Jan-07 14:33N 43°49' E 037°18'1 1.4
2017-Jan-07 13:33N 43°48' E 037°19'1 1.2
2017-Jan-07 12:34N 43°48' E 037°21'2 1.0
2017-Jan-07 10:27N 43°47' E 037°24'1 0.9
2017-Jan-07 09:29N 43°47' E 037°24'1 0.9
2017-Jan-07 08:23N 43°46' E 037°25'1 1.0
2017-Jan-07 07:27N 43°47' E 037°25'9 9.9
2017-Jan-07 06:33N 43°55' E 037°21'1110.5
2017-Jan-07 05:33N 44°04' E 037°14'1010.0
2017-Jan-07 04:33N 44°11' E 037°03'20 1.3
2017-Jan-06 13:33N 43°60' E 037°26'2 2.2
2017-Jan-06 12:33N 43°60' E 037°29'3 2.2
2017-Jan-06 11:22N 43°60' E 037°33'2 1.9
2017-Jan-06 10:21N 44°01' E 037°34'7 9.0
2017-Jan-06 09:34N 44°08' E 037°32'9 9.1
2017-Jan-06 08:34N 44°17' E 037°30'9 9.0
2017-Jan-06 07:34N 44°26' E 037°30'1 1.4
2017-Jan-06 06:33N 44°27' E 037°32'4 3.7
2017-Jan-06 05:33N 44°24' E 037°34'3 3.4
2017-Jan-06 04:33N 44°21' E 037°36'3 3.1
2017-Jan-06 03:33N 44°18' E 037°39'3 2.9
2017-Jan-06 02:33N 44°15' E 037°41'3 2.5
2017-Jan-06 01:12N 44°13' E 037°44'2 2.5
2017-Jan-06 00:16N 44°11' E 037°45'2 2.5
2017-Jan-05 23:32N 44°09' E 037°46'39 3.9
2017-Jan-05 13:31N 44°34' E 037°04'3 3.2
2017-Jan-05 12:33N 44°32' E 037°08'3 3.1
2017-Jan-05 11:33N 44°29' E 037°11'3 3.3
2017-Jan-05 10:33N 44°27' E 037°14'3 3.3
2017-Jan-05 09:33N 44°25' E 037°18'3 3.4
2017-Jan-05 08:33N 44°23' E 037°21'3 3.2
2017-Jan-05 07:34N 44°21' E 037°24'3 3.1
2017-Jan-05 06:33N 44°18' E 037°27'3 2.8
2017-Jan-05 05:33N 44°16' E 037°30'6 2.6
2017-Jan-05 03:13N 44°12' E 037°36'2 2.5
2017-Jan-05 02:30N 44°10' E 037°38'16 1.9
2017-Jan-04 18:16N 44°20' E 037°54'1621.8
2017-Jan-04 17:32N 44°36' E 038°01'1815.3
2017-Jan-04 16:20N 44°19' E 037°52'1823.0
2017-Jan-04 15:33N 44°36' E 038°01'2020.6
2017-Jan-04 14:33N 44°17' E 037°50'1 1.1
2017-Jan-04 13:33N 44°16' E 037°49'0 0.3
2017-Jan-04 12:33N 44°15' E 037°49'5 5.5
2017-Jan-04 11:33N 44°21' E 037°50'3 3.4
2017-Jan-04 10:34N 44°24' E 037°48'1514.6
2017-Jan-04 09:34N 44°36' E 038°01'1616.4
2017-Jan-04 08:33N 44°22' E 037°48'2 1.5
2017-Jan-04 07:32N 44°21' E 037°47'5 5.0
2017-Jan-04 06:33N 44°24' E 037°42'0 0.1
2017-Jan-04 05:34N 44°23' E 037°42'1 0.6
2017-Jan-04 04:33N 44°23' E 037°42'1 0.9
2017-Jan-04 03:33N 44°22' E 037°41'1 0.9
2017-Jan-04 02:33N 44°21' E 037°40'1 1.0
2017-Jan-04 01:33N 44°21' E 037°39'2 2.1
2017-Jan-04 00:31N 44°20' E 037°36'9 9.1
2017-Jan-03 23:29N 44°20' E 037°23'  
Track history (hours):
 
Tides and Currents Weather Stations Pressure Air Temp Water Temp Dewpoint Dewpoint Depression Visibility Wind Speed Wind Dir Waves Ship Positions

Ce_breeze

Last reported at 2017-Jan-12 04:08 UTC. Time now 2017-Jan-24 15:11 UTC.
Position N 44°24' E 037°20'.
Warning: this ship's position is 12 days out of date.

Length 240 m; draft 12.6 m.

Type: Tanker. MMSI: 636010400.

Date/timePositionNaut miles runAvg speedWind from/ knotsBaromVisibWave heightAir tempDewpointWater temp
2017-Jan-12 04:08N 44°24' E 037°20'813.5
2017-Jan-12 03:33N 44°26' E 037°30'1212.3
2017-Jan-12 02:33N 44°34' E 037°44'8 8.3
2017-Jan-12 01:33N 44°41' E 037°50'1 1.4
2017-Jan-12 00:31N 44°42' E 037°50'0 0.0
2017-Jan-11 23:31N 44°42' E 037°50'0 0.0
2017-Jan-11 22:31N 44°42' E 037°50'0 0.0
2017-Jan-11 21:31N 44°42' E 037°50'0 0.0
2017-Jan-11 20:31N 44°42' E 037°50'0 0.0
2017-Jan-11 19:31N 44°42' E 037°50'0 0.0
2017-Jan-11 18:31N 44°42' E 037°50'0 0.0
2017-Jan-11 17:31N 44°42' E 037°50'0 0.0
2017-Jan-11 16:31N 44°42' E 037°50'0 0.0
2017-Jan-11 15:31N 44°42' E 037°50'0 0.0
2017-Jan-11 14:31N 44°42' E 037°50'0 0.0
2017-Jan-11 13:31N 44°42' E 037°50'0 0.0
2017-Jan-11 12:31N 44°42' E 037°50'0 0.0
2017-Jan-11 11:31N 44°42' E 037°50'0 0.0
2017-Jan-11 10:31N 44°42' E 037°50'0 0.0
2017-Jan-11 09:31N 44°42' E 037°50'0 0.0
2017-Jan-11 08:31N 44°42' E 037°50'0 0.0
2017-Jan-11 07:31N 44°42' E 037°50'0 0.0
2017-Jan-11 06:31N 44°42' E 037°50'0 0.0
2017-Jan-11 05:31N 44°42' E 037°50'0 0.0
2017-Jan-11 04:34N 44°42' E 037°50'2 1.9
2017-Jan-11 03:34N 44°40' E 037°50'3 3.3
2017-Jan-11 02:34N 44°37' E 037°51'0 0.4
2017-Jan-11 01:34N 44°37' E 037°51'1010.0
2017-Jan-11 00:34N 44°27' E 037°49'5 5.1
2017-Jan-10 23:33N 44°24' E 037°44'1010.2
2017-Jan-10 22:33N 44°27' E 037°30'10 8.2
2017-Jan-10 21:21N 44°32' E 037°18'2 2.1
2017-Jan-10 20:30N 44°31' E 037°20'2 2.4
2017-Jan-10 19:33N 44°30' E 037°23'3 2.5
2017-Jan-10 18:33N 44°29' E 037°26'2 2.5
2017-Jan-10 17:33N 44°28' E 037°29'2 2.4
2017-Jan-10 16:33N 44°27' E 037°33'2 2.2
2017-Jan-10 15:34N 44°27' E 037°35'2 1.8
2017-Jan-10 14:34N 44°26' E 037°38'1 1.3
2017-Jan-10 13:34N 44°26' E 037°40'1 1.2
2017-Jan-10 12:33N 44°26' E 037°41'1 1.1
2017-Jan-10 11:34N 44°25' E 037°43'1 1.0
2017-Jan-10 10:34N 44°25' E 037°44'1 1.0
2017-Jan-10 09:34N 44°24' E 037°45'1 1.0
2017-Jan-10 08:34N 44°23' E 037°46'1 0.9
2017-Jan-10 07:34N 44°23' E 037°47'1 0.8
2017-Jan-10 06:33N 44°22' E 037°48'1 0.8
2017-Jan-10 05:33N 44°22' E 037°49'1 0.6
2017-Jan-10 04:34N 44°22' E 037°50'0 0.4
2017-Jan-10 03:34N 44°22' E 037°51'0 0.3
2017-Jan-10 02:33N 44°22' E 037°51'0 0.2
2017-Jan-10 01:29N 44°22' E 037°51'0 0.4
2017-Jan-10 00:33N 44°21' E 037°51'1 0.6
2017-Jan-09 23:34N 44°21' E 037°50'1 0.8
2017-Jan-09 22:34N 44°20' E 037°50'1 0.9
2017-Jan-09 21:34N 44°19' E 037°50'1 1.0
2017-Jan-09 20:33N 44°18' E 037°49'1 1.0
2017-Jan-09 19:34N 44°17' E 037°49'1 0.9
2017-Jan-09 18:33N 44°16' E 037°49'1 1.0
2017-Jan-09 17:26N 44°15' E 037°49'1 0.7
2017-Jan-09 16:26N 44°15' E 037°48'6 7.1
2017-Jan-09 15:34N 44°20' E 037°44'10 9.6
2017-Jan-09 14:34N 44°28' E 037°36'1 0.8
2017-Jan-09 13:34N 44°27' E 037°35'1 0.7
2017-Jan-09 12:34N 44°27' E 037°34'1 0.6
2017-Jan-09 11:34N 44°26' E 037°33'1 0.6
2017-Jan-09 10:33N 44°26' E 037°33'5 1.7
2017-Jan-09 07:33N 44°21' E 037°32'8 8.1
2017-Jan-09 06:34N 44°13' E 037°36'5 0.3
2017-Jan-08 10:21N 44°10' E 037°30'1 1.1
2017-Jan-08 09:23N 44°11' E 037°29'5 5.9
2017-Jan-08 08:31N 44°08' E 037°35'24 1.4
2017-Jan-07 15:23N 43°49' E 037°16'1 1.4
2017-Jan-07 14:33N 43°49' E 037°18'1 1.4
2017-Jan-07 13:33N 43°48' E 037°19'1 1.2
2017-Jan-07 12:34N 43°48' E 037°21'2 1.0
2017-Jan-07 10:27N 43°47' E 037°24'1 0.9
2017-Jan-07 09:29N 43°47' E 037°24'1 0.9
2017-Jan-07 08:23N 43°46' E 037°25'1 1.0
2017-Jan-07 07:27N 43°47' E 037°25'9 9.9
2017-Jan-07 06:33N 43°55' E 037°21'1110.5
2017-Jan-07 05:33N 44°04' E 037°14'1010.0
2017-Jan-07 04:33N 44°11' E 037°03'20 1.3
2017-Jan-06 13:33N 43°60' E 037°26'2 2.2
2017-Jan-06 12:33N 43°60' E 037°29'3 2.2
2017-Jan-06 11:22N 43°60' E 037°33'2 1.9
2017-Jan-06 10:21N 44°01' E 037°34'7 9.0
2017-Jan-06 09:34N 44°08' E 037°32'9 9.1
2017-Jan-06 08:34N 44°17' E 037°30'9 9.0
2017-Jan-06 07:34N 44°26' E 037°30'1 1.4
2017-Jan-06 06:33N 44°27' E 037°32'4 3.7
2017-Jan-06 05:33N 44°24' E 037°34'3 3.4
2017-Jan-06 04:33N 44°21' E 037°36'3 3.1
2017-Jan-06 03:33N 44°18' E 037°39'3 2.9
2017-Jan-06 02:33N 44°15' E 037°41'3 2.5
2017-Jan-06 01:12N 44°13' E 037°44'2 2.5
2017-Jan-06 00:16N 44°11' E 037°45'2 2.5
2017-Jan-05 23:32N 44°09' E 037°46'39 3.9
2017-Jan-05 13:31N 44°34' E 037°04'3 3.2
2017-Jan-05 12:33N 44°32' E 037°08'3 3.1
2017-Jan-05 11:33N 44°29' E 037°11'3 3.3
2017-Jan-05 10:33N 44°27' E 037°14'3 3.3
2017-Jan-05 09:33N 44°25' E 037°18'3 3.4
2017-Jan-05 08:33N 44°23' E 037°21'3 3.2
2017-Jan-05 07:34N 44°21' E 037°24'3 3.1
2017-Jan-05 06:33N 44°18' E 037°27'3 2.8
2017-Jan-05 05:33N 44°16' E 037°30'6 2.6
2017-Jan-05 03:13N 44°12' E 037°36'2 2.5
2017-Jan-05 02:30N 44°10' E 037°38'16 1.9
2017-Jan-04 18:16N 44°20' E 037°54'1621.8
2017-Jan-04 17:32N 44°36' E 038°01'1815.3
2017-Jan-04 16:20N 44°19' E 037°52'1823.0
2017-Jan-04 15:33N 44°36' E 038°01'2020.6
2017-Jan-04 14:33N 44°17' E 037°50'1 1.1
2017-Jan-04 13:33N 44°16' E 037°49'0 0.3
2017-Jan-04 12:33N 44°15' E 037°49'5 5.5
2017-Jan-04 11:33N 44°21' E 037°50'3 3.4
2017-Jan-04 10:34N 44°24' E 037°48'1514.6
2017-Jan-04 09:34N 44°36' E 038°01'1616.4
2017-Jan-04 08:33N 44°22' E 037°48'2 1.5
2017-Jan-04 07:32N 44°21' E 037°47'5 5.0
2017-Jan-04 06:33N 44°24' E 037°42'0 0.1
2017-Jan-04 05:34N 44°23' E 037°42'1 0.6
2017-Jan-04 04:33N 44°23' E 037°42'1 0.9
2017-Jan-04 03:33N 44°22' E 037°41'1 0.9
2017-Jan-04 02:33N 44°21' E 037°40'1 1.0
2017-Jan-04 01:33N 44°21' E 037°39'2 2.1
2017-Jan-04 00:31N 44°20' E 037°36'9 9.1
2017-Jan-03 23:29N 44°20' E 037°23'  

Dump ship's entire track history